Time;durP1;ratioP1;P1;durP2;ratioP2;P2;SDS_P1;SDS_P2;PMS_P1;PMS_P2;Temp;Humidity;BMP_temperature;BMP_pressure;BME280_temperature;BME280_humidity;BME280_pressure;Samples;Min_cycle;Max_cycle;Signal;HPM_P1;HPM_P2
2023/12/20 00:01:24;;;;;;;23.23;8.02;;;;;;;5.00;100.00;101626.66;6125671;23;20006;-78
2023/12/20 00:03:50;;;;;;;19.15;7.68;;;;;;;4.95;100.00;101625.13;6125439;23;20041;-80
2023/12/20 00:06:15;;;;;;;17.10;6.43;;;;;;;4.96;100.00;101629.38;6125779;23;20089;-80
2023/12/20 00:08:40;;;;;;;17.63;6.40;;;;;;;4.91;100.00;101632.03;6125969;23;20077;-79
2023/12/20 00:11:06;;;;;;;18.85;5.72;;;;;;;4.90;100.00;101630.34;6125920;23;20005;-80
2023/12/20 00:13:31;;;;;;;20.48;5.93;;;;;;;4.58;100.00;101578.31;6125872;23;20013;-79
2023/12/20 00:15:56;;;;;;;18.90;5.50;;;;;;;4.80;100.00;101629.75;6125558;23;20008;-79
2023/12/20 00:18:22;;;;;;;18.58;5.50;;;;;;;4.78;100.00;101628.97;6125667;23;20002;-80
2023/12/20 00:20:47;;;;;;;19.63;4.93;;;;;;;4.80;100.00;101637.44;6125460;23;20009;-81
2023/12/20 00:23:13;;;;;;;22.67;4.85;;;;;;;4.80;100.00;101621.25;6125504;23;20402;-80
2023/12/20 00:25:38;;;;;;;16.33;5.18;;;;;;;4.89;100.00;101628.69;6125985;23;20110;-80
2023/12/20 00:28:04;;;;;;;14.85;4.22;;;;;;;4.93;100.00;101629.47;6125420;23;20082;-80
2023/12/20 00:30:29;;;;;;;23.48;4.97;;;;;;;4.88;100.00;101627.00;6125968;23;20006;-77
2023/12/20 00:32:55;;;;;;;13.43;4.32;;;;;;;4.77;100.00;101618.78;6125909;23;20037;-77
2023/12/20 00:35:21;;;;;;;12.23;4.18;;;;;;;4.81;100.00;101622.91;6125153;23;20002;-78
2023/12/20 00:37:46;;;;;;;20.17;4.68;;;;;;;4.61;100.00;101597.84;6125636;23;20377;-75
2023/12/20 00:40:11;;;;;;;10.82;3.40;;;;;;;4.68;100.00;101607.06;6125848;23;20440;-76
2023/12/20 00:42:37;;;;;;;16.02;3.92;;;;;;;4.51;100.00;101599.81;6125217;23;20013;-79
2023/12/20 00:45:04;;;;;;;14.43;3.95;;;;;;;4.48;100.00;101596.50;6125712;23;20056;-78
2023/12/20 00:47:30;;;;;;;14.30;3.80;;;;;;;4.45;100.00;101599.16;6125159;23;20048;-78
2023/12/20 00:49:56;;;;;;;15.40;3.75;;;;;;;4.37;100.00;101596.78;6125632;23;20021;-82
2023/12/20 00:52:22;;;;;;;15.73;3.47;;;;;;;4.27;100.00;101574.88;6125770;23;20002;-80
2023/12/20 00:54:48;;;;;;;17.17;3.75;;;;;;;4.40;100.00;101617.16;6125437;23;20089;-82
2023/12/20 00:57:13;;;;;;;17.08;4.20;;;;;;;4.38;100.00;101611.25;6125961;23;20045;-80
2023/12/20 00:59:39;;;;;;;12.93;3.28;;;;;;;4.36;100.00;101615.56;6127399;23;20440;-80
2023/12/20 01:02:04;;;;;;;17.35;3.90;;;;;;;4.35;100.00;101613.88;6127234;23;20340;-80
2023/12/20 01:04:29;;;;;;;16.30;3.67;;;;;;;4.42;100.00;101614.56;6127480;23;20013;-79
2023/12/20 01:06:55;;;;;;;17.55;3.85;;;;;;;4.29;100.00;101586.72;6127412;23;20025;-81
2023/12/20 01:09:23;;;;;;;13.25;3.33;;;;;;;4.48;100.00;101617.81;6127364;23;20005;-83
2023/12/20 01:11:48;;;;;;;11.50;3.00;;;;;;;4.39;100.00;101609.53;6149951;23;20013;-79
2023/12/20 01:14:14;;;;;;;16.80;3.38;;;;;;;4.47;100.00;101620.41;6127042;23;20328;-81
2023/12/20 01:16:39;;;;;;;12.80;3.40;;;;;;;4.34;100.00;101589.19;6127027;23;20309;-80
2023/12/20 01:19:04;;;;;;;15.73;3.45;;;;;;;4.23;100.00;101579.22;6127184;23;20480;-82
2023/12/20 01:21:30;;;;;;;15.68;3.72;;;;;;;4.44;100.00;101628.16;6127263;23;20376;-80
2023/12/20 01:23:55;;;;;;;14.55;3.40;;;;;;;4.44;100.00;101623.03;6127366;23;20010;-84
2023/12/20 01:26:20;;;;;;;19.55;3.85;;;;;;;4.47;100.00;101628.06;6126842;23;20024;-81
2023/12/20 01:28:46;;;;;;;16.90;3.58;;;;;;;4.49;100.00;101627.16;6127011;23;20053;-80
2023/12/20 01:31:11;;;;;;;14.52;3.33;;;;;;;4.43;100.00;101614.53;6126511;23;20012;-80
2023/12/20 01:33:36;;;;;;;14.02;3.50;;;;;;;4.38;100.00;101623.19;6127051;23;20002;-78
2023/12/20 01:36:02;;;;;;;13.18;3.35;;;;;;;4.34;100.00;101625.00;6126993;23;20006;-81
2023/12/20 01:38:27;;;;;;;15.45;3.03;;;;;;;4.34;100.00;101626.72;6149281;23;20325;-83
2023/12/20 01:40:53;;;;;;;18.52;3.40;;;;;;;4.15;100.00;101604.13;6127013;23;20372;-78
2023/12/20 01:43:18;;;;;;;12.43;3.42;;;;;;;4.30;100.00;101626.75;6126855;23;20223;-78
2023/12/20 01:45:44;;;;;;;15.30;3.53;;;;;;;4.28;100.00;101625.13;6126459;23;20409;-78
2023/12/20 01:48:10;;;;;;;15.35;3.22;;;;;;;4.12;100.00;101598.25;6126567;23;20010;-77
2023/12/20 01:50:37;;;;;;;16.55;3.50;;;;;;;4.22;100.00;101615.88;6126730;23;20327;-77
2023/12/20 01:53:04;;;;;;;16.55;3.67;;;;;;;4.07;100.00;101605.19;6126764;23;20001;-79
2023/12/20 01:55:32;;;;;;;20.90;3.70;;;;;;;4.05;100.00;101609.50;6126601;23;20017;-77
2023/12/20 01:57:59;;;;;;;15.75;3.20;;;;;;;4.11;100.00;101622.13;6126379;23;20002;-78
2023/12/20 02:00:26;;;;;;;16.40;3.60;;;;;;;3.97;100.00;101607.13;6126401;23;20042;-78
2023/12/20 02:02:54;;;;;;;15.38;3.08;;;;;;;4.06;100.00;101619.69;6126597;23;20002;-78
2023/12/20 02:05:21;;;;;;;16.70;3.80;;;;;;;3.95;100.00;101593.53;6126411;23;20006;-76
2023/12/20 02:07:47;;;;;;;21.42;3.88;;;;;;;4.02;100.00;101616.34;6126325;23;20002;-79
2023/12/20 02:10:12;;;;;;;13.40;3.22;;;;;;;3.92;100.00;101602.09;6125987;23;20021;-77
2023/12/20 02:12:38;;;;;;;18.40;4.13;;;;;;;4.11;100.00;101627.22;6126316;23;20006;-77
2023/12/20 02:15:04;;;;;;;12.23;3.30;;;;;;;4.05;100.00;101623.13;6126573;23;20053;-80
2023/12/20 02:17:29;;;;;;;15.48;3.28;;;;;;;3.90;100.00;101601.31;6126082;23;20017;-80
2023/12/20 02:19:55;;;;;;;15.75;3.55;;;;;;;4.00;100.00;101617.25;6126446;23;20014;-78
2023/12/20 02:22:20;;;;;;;16.83;3.60;;;;;;;3.97;100.00;101614.78;6126189;23;20005;-78
2023/12/20 02:24:45;;;;;;;15.57;4.47;;;;;;;3.95;100.00;101621.66;6126217;23;20005;-80
2023/12/20 02:27:11;;;;;;;14.98;4.05;;;;;;;3.95;100.00;101619.09;6126172;23;20013;-77
2023/12/20 02:29:37;;;;;;;16.08;3.75;;;;;;;3.94;100.00;101612.31;6126333;23;20005;-77
2023/12/20 02:32:02;;;;;;;17.90;3.92;;;;;;;3.98;100.00;101611.34;6126494;23;20028;-78
2023/12/20 02:34:28;;;;;;;14.52;3.70;;;;;;;4.06;100.00;101613.75;6126445;23;20008;-77
2023/12/20 02:36:53;;;;;;;15.75;4.03;;;;;;;4.14;100.00;101625.47;6126374;23;20016;-77
2023/12/20 02:39:19;;;;;;;18.30;4.18;;;;;;;4.03;100.00;101606.97;6125762;23;20060;-77
2023/12/20 02:41:44;;;;;;;24.65;4.68;;;;;;;4.17;100.00;101619.44;6126123;23;20033;-78
2023/12/20 02:44:10;;;;;;;16.10;4.28;;;;;;;4.13;100.00;101616.13;6126030;23;20428;-76
2023/12/20 02:46:35;;;;;;;19.17;4.63;;;;;;;4.14;100.00;101606.75;6126377;23;20036;-79
2023/12/20 02:49:00;;;;;;;18.75;4.10;;;;;;;4.05;100.00;101596.72;6126250;23;20364;-80
2023/12/20 02:51:27;;;;;;;18.45;4.50;;;;;;;4.10;100.00;101603.38;6126408;23;20018;-77
2023/12/20 02:53:52;;;;;;;17.58;4.32;;;;;;;4.10;100.00;101613.63;6125927;23;20036;-77
2023/12/20 02:56:18;;;;;;;21.52;4.53;;;;;;;4.12;100.00;101614.41;6125983;23;20009;-78
2023/12/20 02:58:43;;;;;;;24.50;5.85;;;;;;;4.12;100.00;101611.84;6126073;23;20029;-77
2023/12/20 03:01:08;;;;;;;18.08;4.47;;;;;;;4.11;100.00;101617.84;6126106;23;20006;-77
2023/12/20 03:03:34;;;;;;;19.27;4.75;;;;;;;4.06;100.00;101612.03;6126080;23;20006;-81
2023/12/20 03:05:59;;;;;;;21.15;5.05;;;;;;;4.07;100.00;101610.31;6126078;23;20388;-78
2023/12/20 03:08:25;;;;;;;24.60;5.60;;;;;;;4.10;100.00;101612.78;6126195;23;20006;-77
2023/12/20 03:10:50;;;;;;;18.05;5.00;;;;;;;4.18;100.00;101610.88;6125819;23;20425;-78
2023/12/20 03:13:15;;;;;;;19.30;4.50;;;;;;;4.15;100.00;101599.03;6125945;23;20002;-78
2023/12/20 03:15:41;;;;;;;24.13;4.72;;;;;;;4.11;100.00;101581.22;6125538;23;20008;-78
2023/12/20 03:18:06;;;;;;;18.10;4.18;;;;;;;4.18;100.00;101587.88;6126100;23;20006;-80
2023/12/20 03:20:34;;;;;;;16.42;4.32;;;;;;;4.11;100.00;101576.94;6126118;23;20006;-79
2023/12/20 03:23:02;;;;;;;22.25;4.65;;;;;;;4.24;100.00;101587.75;6125926;23;20439;-82
2023/12/20 03:25:28;;;;;;;21.52;4.63;;;;;;;3.89;100.00;101510.19;6126085;23;20010;-78
2023/12/20 03:27:53;;;;;;;19.63;4.90;;;;;;;4.31;100.00;101573.91;6126128;23;20017;-79
2023/12/20 03:30:19;;;;;;;21.85;5.22;;;;;;;3.96;100.00;101533.91;6125600;23;20025;-80
2023/12/20 03:32:44;;;;;;;19.77;4.43;;;;;;;4.18;100.00;101575.09;6125750;23;20002;-79
2023/12/20 03:35:10;;;;;;;22.67;4.95;;;;;;;4.18;100.00;101593.84;6125942;23;20006;-77
2023/12/20 03:37:35;;;;;;;20.95;4.88;;;;;;;4.17;100.00;101592.16;6125417;23;20056;-77
2023/12/20 03:40:01;;;;;;;20.58;4.28;;;;;;;4.22;100.00;101589.47;6125737;23;20076;-77
2023/12/20 03:42:26;;;;;;;18.08;4.75;;;;;;;3.89;100.00;101517.88;6125882;23;20013;-77
2023/12/20 03:44:52;;;;;;;23.63;4.75;;;;;;;4.23;100.00;101568.16;6125476;23;20425;-77
2023/12/20 03:47:17;;;;;;;19.58;4.25;;;;;;;4.35;100.00;101574.69;6125604;23;20006;-78
2023/12/20 03:49:42;;;;;;;22.83;4.43;;;;;;;4.37;100.00;101578.03;6125669;23;20002;-77
2023/12/20 03:52:08;;;;;;;23.38;4.50;;;;;;;4.43;100.00;101591.53;6125826;23;20006;-79
2023/12/20 03:54:35;;;;;;;16.90;4.45;;;;;;;4.48;100.00;101583.72;6125967;23;20010;-78
2023/12/20 03:57:00;;;;;;;21.92;5.10;;;;;;;4.51;100.00;101581.06;6125733;23;20006;-81
2023/12/20 03:59:26;;;;;;;24.17;5.25;;;;;;;4.51;100.00;101581.06;6125803;23;20012;-77
2023/12/20 04:01:51;;;;;;;18.00;4.82;;;;;;;4.53;100.00;101584.44;6125405;23;20033;-77
2023/12/20 04:04:16;;;;;;;15.35;4.63;;;;;;;4.52;100.00;101585.31;6125564;23;20065;-76
2023/12/20 04:06:42;;;;;;;21.13;4.88;;;;;;;4.50;100.00;101577.69;6125803;23;20077;-77
2023/12/20 04:09:09;;;;;;;14.43;4.20;;;;;;;4.58;100.00;101577.47;6125512;23;20309;-79
2023/12/20 04:11:34;;;;;;;25.38;4.75;;;;;;;4.49;100.00;101570.06;6125672;23;20305;-78
2023/12/20 04:14:00;;;;;;;20.83;4.28;;;;;;;4.35;100.00;101551.69;6125548;23;20044;-77
2023/12/20 04:16:26;;;;;;;13.90;4.10;;;;;;;4.55;100.00;101588.66;6125374;23;20014;-77
2023/12/20 04:18:51;;;;;;;18.08;4.80;;;;;;;4.63;100.00;101592.72;6125280;23;20327;-80
2023/12/20 04:21:16;;;;;;;27.45;5.20;;;;;;;4.65;100.00;101591.81;6125472;23;20006;-80
2023/12/20 04:23:41;;;;;;;18.02;4.95;;;;;;;4.70;100.00;101591.66;6125590;23;20013;-78
2023/12/20 04:26:07;;;;;;;14.68;4.43;;;;;;;4.68;100.00;101576.38;6125643;23;20378;-78
2023/12/20 04:28:32;;;;;;;20.60;5.15;;;;;;;4.80;100.00;101581.16;6125713;23;20006;-78
2023/12/20 04:30:57;;;;;;;15.88;4.60;;;;;;;4.84;100.00;101593.00;6125666;23;20320;-78
2023/12/20 04:33:23;;;;;;;20.75;5.07;;;;;;;4.84;100.00;101579.38;6126530;23;20010;-77
2023/12/20 04:35:48;;;;;;;22.20;5.68;;;;;;;4.87;100.00;101566.47;6127536;23;20013;-80
2023/12/20 04:38:14;;;;;;;21.98;5.15;;;;;;;4.86;100.00;101568.19;6127227;23;20020;-82
2023/12/20 04:40:40;;;;;;;22.67;4.75;;;;;;;5.00;100.00;101582.31;6127264;23;20428;-80
2023/12/20 04:43:06;;;;;;;20.85;4.40;;;;;;;4.78;100.00;101547.09;6127266;23;20013;-79
2023/12/20 04:45:31;;;;;;;19.17;4.40;;;;;;;4.99;100.00;101580.66;6127561;23;20365;-76
2023/12/20 04:47:56;;;;;;;20.70;4.13;;;;;;;4.97;100.00;101577.28;6124115;23;20002;-77
2023/12/20 04:50:22;;;;;;;19.67;4.97;;;;;;;4.96;100.00;101585.88;6127641;23;20013;-77
2023/12/20 04:52:47;;;;;;;25.92;4.97;;;;;;;4.93;100.00;101584.22;6126951;23;20009;-79
2023/12/20 04:55:13;;;;;;;23.50;5.35;;;;;;;4.96;100.00;101590.97;6126983;23;20009;-78
2023/12/20 04:57:39;;;;;;;19.42;4.40;;;;;;;4.98;100.00;101592.59;6127201;23;20443;-77
2023/12/20 05:00:05;;;;;;;18.23;5.53;;;;;;;4.90;100.00;101574.06;6127109;23;20030;-77
2023/12/20 05:02:30;;;;;;;16.20;4.32;;;;;;;5.04;100.00;101574.53;6126975;23;20428;-76
2023/12/20 05:14:18;;;;;;;20.05;4.43;;;;;;;3.81;100.00;101345.22;6127245;23;20014;-76
2023/12/20 05:16:44;;;;;;;18.33;4.10;;;;;;;5.06;100.00;101541.19;6126736;23;20089;-76
2023/12/20 05:19:09;;;;;;;20.05;5.03;;;;;;;5.22;100.00;101567.22;6127046;23;20034;-77
2023/12/20 05:21:35;;;;;;;22.23;4.50;;;;;;;5.26;100.00;101569.63;6126871;23;20006;-78
2023/12/20 05:24:01;;;;;;;20.92;4.40;;;;;;;5.29;100.00;101564.41;6127278;23;20006;-77
2023/12/20 05:26:26;;;;;;;20.27;4.88;;;;;;;5.31;100.00;101572.03;6126772;23;20002;-78
2023/12/20 05:28:51;;;;;;;21.33;4.60;;;;;;;5.30;100.00;101565.25;6126491;23;20065;-75
2023/12/20 05:31:17;;;;;;;20.42;4.10;;;;;;;5.30;100.00;101560.13;6126660;23;20040;-78
2023/12/20 05:33:43;;;;;;;19.45;4.70;;;;;;;5.29;100.00;101564.41;6126814;23;20006;-78
2023/12/20 05:36:11;;;;;;;20.13;4.07;;;;;;;5.28;100.00;101557.63;6126993;23;20017;-80
2023/12/20 05:38:36;;;;;;;18.58;4.50;;;;;;;4.97;100.00;101508.19;6127127;23;20002;-78
2023/12/20 05:41:02;;;;;;;27.73;4.88;;;;;;;5.24;100.00;101561.16;6126783;23;20452;-78
2023/12/20 05:43:27;;;;;;;24.00;4.60;;;;;;;5.24;100.00;101558.59;6126648;23;20483;-79
2023/12/20 05:45:52;;;;;;;16.08;4.40;;;;;;;5.21;100.00;101563.81;6127046;23;20526;-79
2023/12/20 05:48:18;;;;;;;19.65;5.18;;;;;;;5.17;100.00;101559.66;6126602;23;20064;-77
2023/12/20 05:50:43;;;;;;;19.92;4.60;;;;;;;4.76;100.00;101515.59;6126671;23;20009;-77
2023/12/20 05:53:08;;;;;;;21.05;4.03;;;;;;;5.13;100.00;101573.44;6126536;23;20006;-78
2023/12/20 05:55:34;;;;;;;22.83;4.65;;;;;;;4.77;100.00;101531.78;6126775;23;20068;-80
2023/12/20 05:57:59;;;;;;;18.83;4.43;;;;;;;4.75;100.00;101546.34;6126533;23;20006;-80
2023/12/20 06:00:25;;;;;;;16.40;4.35;;;;;;;4.76;100.00;101546.31;6126410;23;20009;-78
2023/12/20 06:02:50;;;;;;;19.33;4.93;;;;;;;4.94;100.00;101582.50;6126787;23;20033;-78
2023/12/20 06:05:15;;;;;;;16.65;4.40;;;;;;;5.04;100.00;101591.63;6126161;23;20029;-78
2023/12/20 06:07:41;;;;;;;21.83;5.32;;;;;;;5.09;100.00;101598.25;6126069;23;20014;-77
2023/12/20 06:10:06;;;;;;;17.38;4.03;;;;;;;5.12;100.00;101593.09;6126855;23;20017;-78
2023/12/20 06:12:33;;;;;;;18.60;4.65;;;;;;;4.75;100.00;101536.94;6126815;23;20336;-77
2023/12/20 06:14:58;;;;;;;19.52;4.43;;;;;;;5.14;100.00;101600.72;6126249;23;20428;-77
2023/12/20 06:17:23;;;;;;;15.90;4.15;;;;;;;5.13;100.00;101593.91;6125923;23;20017;-81
2023/12/20 06:19:50;;;;;;;13.98;3.95;;;;;;;5.03;100.00;101584.81;6126513;23;20006;-79
2023/12/20 06:22:15;;;;;;;23.73;4.97;;;;;;;4.73;100.00;101536.16;6126230;23;20005;-83
2023/12/20 06:24:41;;;;;;;19.55;4.22;;;;;;;5.04;100.00;101586.50;6126363;23;20025;-80
2023/12/20 06:27:06;;;;;;;23.02;4.40;;;;;;;4.94;100.00;101585.91;6126230;23;20033;-78
2023/12/20 06:29:32;;;;;;;21.02;4.68;;;;;;;4.83;100.00;101587.94;6126535;23;20044;-79
2023/12/20 06:31:57;;;;;;;21.15;5.03;;;;;;;4.55;100.00;101552.00;6126361;23;20083;-77
2023/12/20 06:34:22;;;;;;;18.42;5.22;;;;;;;4.57;100.00;101574.09;6125977;23;20013;-77
2023/12/20 06:36:48;;;;;;;22.40;4.50;;;;;;;4.53;100.00;101584.44;6125985;23;20013;-78
2023/12/20 06:39:13;;;;;;;17.25;4.38;;;;;;;4.47;100.00;101590.56;6126281;23;20028;-77
2023/12/20 06:41:39;;;;;;;25.27;5.40;;;;;;;4.48;100.00;101593.94;6126199;23;20069;-77
2023/12/20 06:44:04;;;;;;;16.85;4.43;;;;;;;4.52;100.00;101591.28;6126257;23;20057;-77
2023/12/20 06:46:30;;;;;;;22.45;4.60;;;;;;;4.51;100.00;101569.13;6126092;23;20306;-77
2023/12/20 06:48:55;;;;;;;21.42;4.45;;;;;;;4.31;100.00;101536.38;6124385;23;20081;-80
2023/12/20 06:51:25;;;;;;;18.58;4.00;;;;;;;4.69;100.00;101590.81;6124112;23;20081;-78
2023/12/20 06:53:50;;;;;;;18.20;4.95;;;;;;;4.63;100.00;101575.66;6123244;23;20015;-78
2023/12/20 06:56:16;;;;;;;15.07;3.72;;;;;;;4.36;100.00;101523.50;6125376;23;20424;-77
2023/12/20 06:58:42;;;;;;;15.50;4.07;;;;;;;4.71;100.00;101591.63;6126114;23;20060;-78
2023/12/20 07:01:11;;;;;;;22.60;4.63;;;;;;;4.44;100.00;101539.50;6125722;23;20002;-78
2023/12/20 07:03:37;;;;;;;20.25;4.45;;;;;;;4.77;100.00;101588.91;6125774;23;20009;-78
2023/12/20 07:06:03;;;;;;;17.13;4.57;;;;;;;4.79;100.00;101583.75;6125499;23;20022;-78
2023/12/20 07:08:29;;;;;;;19.58;4.85;;;;;;;4.75;100.00;101572.78;6124725;23;20017;-77
2023/12/20 07:11:05;;;;;;;16.55;5.35;;;;;;;4.55;100.00;101537.50;6126319;23;20425;-78
2023/12/20 07:13:30;;;;;;;16.73;4.30;;;;;;;4.66;100.00;101544.03;6074190;23;20013;-78
2023/12/20 07:15:55;;;;;;;21.00;4.13;;;;;;;4.50;100.00;101513.75;6124531;23;20009;-77
2023/12/20 07:18:21;;;;;;;18.65;4.40;;;;;;;4.66;100.00;101542.31;6124694;23;20005;-77
2023/12/20 07:20:46;;;;;;;18.20;4.13;;;;;;;4.85;100.00;101579.31;6124197;23;20006;-77
2023/12/20 07:23:12;;;;;;;17.42;3.90;;;;;;;4.86;100.00;101575.03;6124637;23;20376;-78
2023/12/20 07:25:37;;;;;;;15.85;3.75;;;;;;;4.87;100.00;101584.38;6123794;23;20010;-73
2023/12/20 07:28:03;;;;;;;19.80;4.38;;;;;;;4.88;100.00;101584.34;6124241;23;20439;-76
2023/12/20 07:30:28;;;;;;;13.75;4.25;;;;;;;4.92;100.00;101584.25;6125052;23;20421;-73
2023/12/20 07:32:53;;;;;;;20.08;4.90;;;;;;;4.72;100.00;101551.53;6124235;23;20057;-75
2023/12/20 07:35:19;;;;;;;22.50;4.70;;;;;;;4.95;100.00;101579.06;6124047;23;20365;-79
2023/12/20 07:37:44;;;;;;;22.15;4.85;;;;;;;4.87;100.00;101566.47;6124471;23;20009;-76
2023/12/20 07:40:10;;;;;;;18.60;4.85;;;;;;;4.94;100.00;101580.78;6124597;23;20412;-76
2023/12/20 07:42:35;;;;;;;19.48;5.00;;;;;;;4.87;100.00;101564.75;6124914;23;20005;-77
2023/12/20 07:45:00;;;;;;;17.27;4.60;;;;;;;4.94;100.00;101578.22;6124242;23;20013;-74
2023/12/20 07:47:26;;;;;;;15.35;4.45;;;;;;;4.94;100.00;101578.22;6124097;23;20014;-76
2023/12/20 07:49:51;;;;;;;22.02;5.35;;;;;;;4.91;100.00;101583.41;6123977;23;20029;-79
2023/12/20 07:52:19;;;;;;;19.35;4.82;;;;;;;4.91;100.00;101575.72;6124701;23;20009;-80
2023/12/20 07:54:45;;;;;;;18.38;4.95;;;;;;;4.84;100.00;101562.28;6124247;23;20013;-77
2023/12/20 07:57:11;;;;;;;17.77;5.05;;;;;;;4.94;100.00;101585.91;6124607;23;20006;-77
2023/12/20 07:59:37;;;;;;;21.20;5.00;;;;;;;4.69;100.00;101534.53;6124900;23;20005;-78
2023/12/20 08:02:02;;;;;;;20.00;4.95;;;;;;;4.78;100.00;101554.75;6124223;23;20357;-78
2023/12/20 08:04:28;;;;;;;18.17;4.88;;;;;;;4.79;100.00;101564.13;6124412;23;20006;-77
2023/12/20 08:06:53;;;;;;;17.85;4.85;;;;;;;4.97;100.00;101590.09;6079394;23;1085329;-83
2023/12/20 08:09:19;;;;;;;16.13;5.07;;;;;;;4.99;100.00;101588.31;6127674;23;20041;-76
2023/12/20 08:11:48;;;;;;;21.58;5.28;;;;;;;5.01;100.00;101584.00;6127485;23;20006;-78
2023/12/20 08:14:14;;;;;;;15.13;4.90;;;;;;;4.83;100.00;101557.22;6127863;23;20008;-79
2023/12/20 08:16:39;;;;;;;18.13;5.05;;;;;;;5.04;100.00;101573.69;6127648;23;20077;-77
2023/12/20 08:19:05;;;;;;;17.95;4.80;;;;;;;5.09;100.00;101587.19;6126123;23;20081;-74
2023/12/20 08:21:30;;;;;;;21.05;5.25;;;;;;;5.03;100.00;101577.97;6128097;23;20002;-77
2023/12/20 08:23:55;;;;;;;22.60;4.80;;;;;;;5.15;100.00;101602.38;6127220;23;20085;-75
2023/12/20 08:26:22;;;;;;;20.80;5.10;;;;;;;5.18;100.00;101598.00;6127472;23;19998;-76
2023/12/20 08:28:48;;;;;;;19.67;4.95;;;;;;;5.14;100.00;101585.34;6127613;23;20254;-78
2023/12/20 08:31:17;;;;;;;21.40;4.60;;;;;;;5.09;100.00;101579.50;6127311;23;20017;-76
2023/12/20 08:33:47;;;;;;;20.92;4.70;;;;;;;5.17;100.00;101587.81;6127206;23;19998;-82
2023/12/20 08:36:13;;;;;;;18.45;4.45;;;;;;;5.27;100.00;101596.91;6127098;23;20006;-78
2023/12/20 08:38:39;;;;;;;19.13;4.68;;;;;;;5.33;100.00;101594.19;6127554;23;20017;-73
2023/12/20 08:41:07;;;;;;;22.52;5.50;;;;;;;5.33;100.00;101590.78;6127311;23;20413;-79
2023/12/20 08:43:34;;;;;;;16.85;4.65;;;;;;;5.38;100.00;101600.00;6127207;23;20006;-77
2023/12/20 08:46:00;;;;;;;18.45;4.60;;;;;;;5.35;100.00;101587.28;6127316;23;20420;-80
2023/12/20 08:48:25;;;;;;;23.33;4.43;;;;;;;5.35;100.00;101569.38;6149519;23;20016;-77
2023/12/20 08:50:52;;;;;;;20.92;4.75;;;;;;;5.35;100.00;101558.28;6127207;23;20006;-76
2023/12/20 08:53:18;;;;;;;18.48;5.03;;;;;;;5.50;100.00;101582.59;6127063;23;20005;-77
2023/12/20 08:55:43;;;;;;;16.80;4.47;;;;;;;5.53;100.00;101577.41;6126878;23;20033;-73
2023/12/20 08:58:09;;;;;;;21.40;5.15;;;;;;;5.58;100.00;101572.97;6126878;23;20010;-75
2023/12/20 09:00:34;;;;;;;16.45;4.28;;;;;;;5.56;100.00;101567.88;6128079;23;20009;-76
2023/12/20 09:03:01;;;;;;;21.27;5.15;;;;;;;5.59;100.00;101566.94;6126649;23;20017;-75
2023/12/20 09:05:27;;;;;;;16.83;4.28;;;;;;;5.60;100.00;101568.63;6127074;23;20325;-81
2023/12/20 09:07:52;;;;;;;22.35;4.28;;;;;;;5.61;100.00;101562.63;6126604;23;20089;-75
2023/12/20 09:10:21;;;;;;;20.30;4.88;;;;;;;5.63;100.00;101571.09;6127297;23;20041;-75
2023/12/20 09:12:48;;;;;;;18.67;4.65;;;;;;;5.44;100.00;101533.22;6127041;23;20009;-74
2023/12/20 09:15:13;;;;;;;22.80;4.30;;;;;;;5.69;100.00;101565.78;6126754;23;20069;-75
2023/12/20 09:17:39;;;;;;;19.17;4.10;;;;;;;5.64;100.00;101552.28;6123608;23;20010;-75
2023/12/20 09:20:07;;;;;;;20.13;4.25;;;;;;;5.64;100.00;101560.81;6127060;23;20006;-78
2023/12/20 09:22:33;;;;;;;17.33;4.38;;;;;;;5.75;100.00;101568.16;6126760;23;20006;-76
2023/12/20 09:24:58;;;;;;;16.58;4.15;;;;;;;5.73;100.00;101570.78;6127195;23;20096;-73
2023/12/20 09:27:24;;;;;;;23.23;4.78;;;;;;;5.68;100.00;101564.94;6126695;23;20009;-77
2023/12/20 09:29:49;;;;;;;17.13;4.55;;;;;;;5.65;100.00;101556.53;6127236;23;20010;-75
2023/12/20 09:32:15;;;;;;;17.30;4.78;;;;;;;5.81;100.00;101579.97;6126697;23;20001;-78
2023/12/20 09:34:41;;;;;;;19.90;4.57;;;;;;;5.80;100.00;101576.56;6126926;23;20002;-78
2023/12/20 09:37:07;;;;;;;18.20;4.28;;;;;;;5.85;100.00;101579.81;6126946;23;20044;-78
2023/12/20 09:39:33;;;;;;;14.18;4.07;;;;;;;5.87;100.00;101574.63;6126522;23;20006;-78
2023/12/20 09:42:03;;;;;;;16.65;4.55;;;;;;;5.89;100.00;101565.16;6126609;23;20192;-77
2023/12/20 09:44:29;;;;;;;16.35;4.82;;;;;;;5.89;100.00;101571.13;6126652;23;20037;-76
2023/12/20 09:46:56;;;;;;;17.60;4.90;;;;;;;5.91;100.00;101581.38;6124706;23;20017;-77
2023/12/20 09:49:21;;;;;;;21.42;4.00;;;;;;;5.90;100.00;101572.84;6126528;23;20006;-77
2023/12/20 09:51:47;;;;;;;16.38;4.07;;;;;;;5.89;100.00;101565.16;6148935;23;20119;-76
2023/12/20 09:54:16;;;;;;;17.95;4.35;;;;;;;5.84;100.00;101560.19;6126304;23;20002;-76
2023/12/20 09:56:42;;;;;;;19.08;4.35;;;;;;;5.77;100.00;101551.00;6125155;23;20368;-75
2023/12/20 09:59:07;;;;;;;18.98;4.32;;;;;;;5.90;100.00;101582.19;6127148;23;20044;-76
2023/12/20 10:01:35;;;;;;;16.83;4.22;;;;;;;5.88;100.00;101569.44;6126998;23;20005;-75
2023/12/20 10:04:01;;;;;;;20.70;4.80;;;;;;;5.59;100.00;101523.38;6125803;23;20491;-76
2023/12/20 10:06:27;;;;;;;17.65;4.53;;;;;;;5.93;100.00;101574.47;6126033;23;20025;-74
2023/12/20 10:08:52;;;;;;;18.13;4.50;;;;;;;5.88;100.00;101566.03;6126504;23;20014;-75
2023/12/20 10:11:19;;;;;;;18.55;4.20;;;;;;;5.97;100.00;101573.47;6123941;23;20017;-73
2023/12/20 10:13:48;;;;;;;19.20;4.47;;;;;;;5.98;100.00;101572.59;6126208;23;20005;-74
2023/12/20 10:16:13;;;;;;;18.63;4.47;;;;;;;5.93;100.00;101562.50;6126112;23;20002;-73
2023/12/20 10:18:39;;;;;;;18.20;4.10;;;;;;;5.94;100.00;101553.91;6126579;23;20010;-74
2023/12/20 10:21:04;;;;;;;16.05;4.22;;;;;;;6.04;100.00;101562.16;6126302;23;20006;-76
2023/12/20 10:23:30;;;;;;;22.20;4.72;;;;;;;5.85;100.00;101528.53;6125608;23;20017;-76
2023/12/20 10:25:59;;;;;;;15.52;4.18;;;;;;;5.96;100.00;101548.72;6126562;23;20013;-77
2023/12/20 10:28:27;;;;;;;17.95;4.72;;;;;;;6.10;100.00;101567.09;6126606;23;20013;-77
2023/12/20 10:30:54;;;;;;;14.88;4.30;;;;;;;6.11;100.00;101578.19;6126122;23;20001;-78
2023/12/20 10:33:24;;;;;;;16.50;4.65;;;;;;;6.12;100.00;101572.16;6125834;23;20006;-76
2023/12/20 10:35:50;;;;;;;15.48;4.25;;;;;;;6.12;100.00;101570.44;6126042;23;20009;-75
2023/12/20 10:38:15;;;;;;;16.30;3.60;;;;;;;6.12;100.00;101562.75;6126458;23;20006;-78
2023/12/20 10:40:41;;;;;;;18.73;4.63;;;;;;;6.15;100.00;101561.78;6126332;23;20002;-75
2023/12/20 10:43:08;;;;;;;20.20;5.50;;;;;;;5.85;100.00;101508.03;6126630;23;20062;-75
2023/12/20 10:45:34;;;;;;;13.52;3.63;;;;;;;5.98;100.00;101531.56;6126241;23;20013;-75
2023/12/20 10:48:01;;;;;;;17.38;4.95;;;;;;;5.98;100.00;101521.31;6124596;23;19998;-74
2023/12/20 10:50:28;;;;;;;15.82;3.78;;;;;;;6.24;100.00;101546.09;6126188;23;20006;-74
2023/12/20 10:52:55;;;;;;;21.15;4.43;;;;;;;6.14;100.00;101524.22;6125609;23;20002;-74
2023/12/20 10:55:21;;;;;;;21.75;4.90;;;;;;;6.13;100.00;101508.00;6125944;23;20080;-74
2023/12/20 10:57:50;;;;;;;16.42;4.05;;;;;;;6.33;100.00;101535.53;6126238;23;20369;-74
2023/12/20 11:00:18;;;;;;;19.35;4.75;;;;;;;6.21;100.00;101494.94;6125898;23;20420;-75
2023/12/20 11:02:44;;;;;;;19.20;4.45;;;;;;;6.49;100.00;101523.00;6126180;23;20329;-74
2023/12/20 11:05:22;;;;;;;19.17;4.63;;;;;;;6.43;100.00;101502.72;6126048;23;20064;-74
2023/12/20 11:07:52;;;;;;;14.45;3.85;;;;;;;6.61;100.00;101526.00;6125648;23;20022;-77
2023/12/20 11:10:23;;;;;;;18.80;4.05;;;;;;;6.65;100.00;101531.00;6125887;23;20005;-75
2023/12/20 11:13:02;;;;;;;15.18;3.88;;;;;;;6.69;100.00;101527.47;6125839;23;20289;-76
2023/12/20 11:15:28;;;;;;;17.95;4.00;;;;;;;6.71;100.00;101523.09;6125990;23;20028;-78
2023/12/20 11:17:58;;;;;;;15.10;3.80;;;;;;;6.73;100.00;101523.88;6122996;23;20006;-79
2023/12/20 11:20:35;;;;;;;15.20;2.95;;;;;;;6.73;100.00;101526.44;6126274;23;20010;-77